West Lafayette, IN

10:33 PM EDT on September 04, 2015 (GMT -0400)
Cumberland Elementary/West Lafayette | | Change Station
CLOSE
Current Station
Personal Weather Station
Location: West Lafayette, IN
Elevation: 712 ft
Nearby Weather Stations

Elev 712 ft 40.46 °N, 86.91 °W | Updated 14 minutes ago

Partly Cloudy
Partly Cloudy
73.8 °F
Feels Like 77 °F
N
1.6
Wind Variable Wind from East

Today
High -- | Low -- °F
--% Chance of Precip.
Yesterday
High -- | Low -- °F
Precip. -- in
7:17 AM 8:15 PM
Waning Gibbous, 53% visible
Pressure 30.05 in
Visibility 10.0 miles
Clouds Clear
Heat Index 77 °F
Dew Point 60 °F
Humidity 62%
Rainfall 0.00 in
Snow Depth Not available.
UV 0 out of 12
Pollen 10.40 out of 12
Air Quality Not available.
Flu Activity Not available.
METAR KLAF 050154Z AUTO 21003KT 10SM CLR 22/18 A3006 RMK AO2 SLP175 T02220178 TSNO
Pressure 30.05 in
Visibility 10.0 miles
Clouds Clear
Heat Index 77 °F
Dew Point 60 °F
Humidity 62%
Rainfall 0.00 in
Snow Depth Not available.
UV 0 out of 12
Pollen 10.40 out of 12
Air Quality Not available.
Flu Activity Not available.
METAR KLAF 050154Z AUTO 21003KT 10SM CLR 22/18 A3006 RMK AO2 SLP175 T02220178 TSNO

10-Day Weather Forecast

×

Almanac

Astronomy

Sep. 04, 2015 Rise Set
Actual Time
Civil Twilight
Nautical Twilight
Astronomical Twilight
Moon
Length of Visible Light
Length of Day
Tomorrow will be .
, % of the Moon is Illuminated

Today's Extremes

State Highs State Lows

Community

WunderPhotos

Upload Photos

1,852,393 photos uploaded!

WunderBlogs® & News

Nearby

Air Quality

  Air Quality AQ Index Pollutant
Not available.

Snow Depth

Station Depth Elevation

Earthquake Activity

City Distance Mag. Time & Date
Minimum magnitude displayed is 2.5.

Coastal Water Temperatures

Place Temperature

Stations

Nearby Weather Stations

Station Location Temp. Windchill Dew Point Humidity Wind Precip. Elev Updated Type